Frohna, Missouri
Current Conditions -  °F | °C
As of 2:52 PM on Friday 19 Dec 2014 (Local Time) from KMDH Reporting Station
Overcast Overcast  
Wind Chill: 34°   Ceiling: 3400
Heat Index: 38°   Visibility: 10mi
Dew Point: 28°   Wind: 5mph
Humidity: 68%   Direction: 40°NE
Pressure: 30.27"   Gusts: NA
Location:  37.64°N, 89.62°W
Report Text: KMDH 192052Z 04004KT 10SM OVC034 03/M02 A3027 RMK AO2 SLP253 T00331022 58007
Loading
Personal Weather Stations






























Interactive Weather Map New forecast layout! Learn more

10-Day Weather Forecast

Advertisements
Track Severe Weather on mobile